Time,TemperatureF,DewpointF,PressureIn,WindDirection,WindDirectionDegrees,WindSpeedMPH,WindSpeedGustMPH,Humidity,HourlyPrecipIn,Conditions,Clouds,dailyrainin,SolarRadiationWatts/m^2,SoftwareType,DateUTC
2013-11-12 00:02:00,68.0,24.0,-100.00,ENE,76,12.0,24.0,19,0.00,,,0.00,0.000000,,2013-11-12 08:02:00,
2013-11-12 00:11:00,68.0,24.0,-100.00,ENE,76,12.0,24.0,19,0.00,,,0.00,0.000000,,2013-11-12 08:11:00,
2013-11-12 00:42:00,66.0,23.0,-100.00,East,86,8.0,20.0,19,0.00,,,-99.99,0.000000,,2013-11-12 08:42:00,
2013-11-12 00:52:00,66.0,23.0,-100.00,East,86,8.0,20.0,19,0.00,,,-99.99,0.000000,,2013-11-12 08:52:00,
2013-11-12 01:02:00,66.0,23.0,-100.00,East,86,8.0,20.0,19,0.00,,,-99.99,0.000000,,2013-11-12 09:02:00,
2013-11-12 01:11:00,66.0,23.0,-100.00,East,86,8.0,20.0,19,0.00,,,-99.99,0.000000,,2013-11-12 09:11:00,
2013-11-12 01:42:00,65.0,23.0,-100.00,SE,135,1.0,18.0,20,0.00,,,-99.99,0.000000,,2013-11-12 09:42:00,
2013-11-12 01:53:00,65.0,23.0,-100.00,SE,135,1.0,18.0,20,0.00,,,-99.99,0.000000,,2013-11-12 09:53:00,
2013-11-12 02:03:00,65.0,23.0,-100.00,SE,135,1.0,18.0,20,0.00,,,-99.99,0.000000,,2013-11-12 10:03:00,
2013-11-12 02:12:00,65.0,23.0,-100.00,SE,135,1.0,18.0,20,0.00,,,-99.99,0.000000,,2013-11-12 10:12:00,
2013-11-12 02:42:00,68.0,22.0,-100.00,ENE,66,14.0,24.0,17,0.00,,,0.00,0.000000,,2013-11-12 10:42:00,
2013-11-12 02:53:00,68.0,22.0,-100.00,ENE,66,14.0,24.0,17,0.00,,,0.00,0.000000,,2013-11-12 10:53:00,
2013-11-12 03:02:00,68.0,22.0,-100.00,ENE,66,14.0,24.0,17,0.00,,,0.00,0.000000,,2013-11-12 11:02:00,
2013-11-12 03:12:00,68.0,22.0,-100.00,ENE,66,14.0,24.0,17,0.00,,,0.00,0.000000,,2013-11-12 11:12:00,
2013-11-12 04:42:00,69.0,22.0,-100.00,ENE,62,18.0,28.0,17,-99.99,,,0.00,0.000000,,2013-11-12 12:42:00,
2013-11-12 04:52:00,69.0,22.0,-100.00,ENE,62,18.0,28.0,17,-99.99,,,0.00,0.000000,,2013-11-12 12:52:00,
2013-11-12 05:01:00,69.0,22.0,-100.00,ENE,62,18.0,28.0,17,-99.99,,,0.00,0.000000,,2013-11-12 13:01:00,
2013-11-12 05:11:00,69.0,22.0,-100.00,ENE,62,18.0,28.0,17,-99.99,,,0.00,0.000000,,2013-11-12 13:11:00,
2013-11-12 05:42:00,67.0,23.0,-100.00,ENE,78,7.0,26.0,19,-99.99,,,-99.99,0.000000,,2013-11-12 13:42:00,
2013-11-12 05:52:00,67.0,23.0,-100.00,ENE,78,7.0,26.0,19,-99.99,,,-99.99,0.000000,,2013-11-12 13:52:00,
2013-11-12 06:02:00,67.0,23.0,-100.00,ENE,78,7.0,26.0,19,-99.99,,,-99.99,0.000000,,2013-11-12 14:02:00,
2013-11-12 06:11:00,67.0,23.0,-100.00,ENE,78,7.0,26.0,19,-99.99,,,-99.99,0.000000,,2013-11-12 14:11:00,
2013-11-12 06:42:00,66.0,25.0,-100.00,ENE,75,8.0,16.0,21,0.00,,,0.00,0.000000,,2013-11-12 14:42:00,
2013-11-12 06:52:00,66.0,25.0,-100.00,ENE,75,8.0,16.0,21,0.00,,,0.00,0.000000,,2013-11-12 14:52:00,
2013-11-12 07:02:00,66.0,25.0,-100.00,ENE,75,8.0,16.0,21,0.00,,,0.00,0.000000,,2013-11-12 15:02:00,
2013-11-12 07:11:00,66.0,25.0,-100.00,ENE,75,8.0,16.0,21,0.00,,,0.00,0.000000,,2013-11-12 15:11:00,
2013-11-12 07:53:00,70.0,27.0,-100.00,ENE,61,12.0,21.0,20,0.00,,,0.00,51.000000,,2013-11-12 15:53:00,
2013-11-12 08:03:00,70.0,27.0,-100.00,ENE,61,12.0,21.0,20,0.00,,,0.00,51.000000,,2013-11-12 16:03:00,
2013-11-12 08:12:00,70.0,27.0,-100.00,ENE,61,12.0,21.0,20,0.00,,,0.00,51.000000,,2013-11-12 16:12:00,
2013-11-12 08:53:00,73.0,27.0,-100.00,ENE,63,12.0,21.0,18,0.00,,,0.00,261.000000,,2013-11-12 16:53:00,
2013-11-12 09:02:00,73.0,27.0,-100.00,ENE,63,12.0,21.0,18,0.00,,,0.00,261.000000,,2013-11-12 17:02:00,
2013-11-12 09:12:00,73.0,27.0,-100.00,ENE,63,12.0,21.0,18,0.00,,,0.00,261.000000,,2013-11-12 17:12:00,
2013-11-12 09:42:00,73.0,30.0,-100.00,ESE,106,7.0,20.0,20,0.00,,,0.00,268.000000,,2013-11-12 17:42:00,
2013-11-12 09:52:00,73.0,30.0,-100.00,ESE,106,7.0,20.0,20,0.00,,,0.00,268.000000,,2013-11-12 17:52:00,
2013-11-12 10:01:00,73.0,30.0,-100.00,ESE,106,7.0,20.0,20,0.00,,,0.00,268.000000,,2013-11-12 18:01:00,
2013-11-12 10:12:00,73.0,30.0,-100.00,ESE,106,7.0,20.0,20,0.00,,,0.00,268.000000,,2013-11-12 18:12:00,
2013-11-12 10:42:00,77.0,27.0,-100.00,East,86,6.0,10.0,16,0.00,,,0.00,455.000000,,2013-11-12 18:42:00,
2013-11-12 10:52:00,77.0,27.0,-100.00,East,86,6.0,10.0,16,0.00,,,0.00,455.000000,,2013-11-12 18:52:00,
2013-11-12 11:01:00,77.0,27.0,-100.00,East,86,6.0,10.0,16,0.00,,,0.00,455.000000,,2013-11-12 19:01:00,
2013-11-12 11:11:00,77.0,27.0,-100.00,East,86,6.0,10.0,16,0.00,,,0.00,455.000000,,2013-11-12 19:11:00,
2013-11-12 11:42:00,76.0,29.0,-100.00,NE,53,8.0,16.0,18,0.00,,,0.00,450.000000,,2013-11-12 19:42:00,
2013-11-12 11:52:00,76.0,29.0,-100.00,NE,53,8.0,16.0,18,0.00,,,0.00,450.000000,,2013-11-12 19:52:00,
2013-11-12 12:01:00,76.0,29.0,-100.00,NE,53,8.0,16.0,18,0.00,,,0.00,450.000000,,2013-11-12 20:01:00,
2013-11-12 12:11:00,76.0,29.0,-100.00,NE,53,8.0,16.0,18,0.00,,,0.00,450.000000,,2013-11-12 20:11:00,
2013-11-12 12:42:00,74.0,29.0,-100.00,ENE,61,8.0,18.0,19,0.00,,,0.00,338.000000,,2013-11-12 20:42:00,
2013-11-12 12:52:00,74.0,29.0,-100.00,ENE,61,8.0,18.0,19,0.00,,,0.00,338.000000,,2013-11-12 20:52:00,
2013-11-12 13:02:00,74.0,29.0,-100.00,ENE,61,8.0,18.0,19,0.00,,,0.00,338.000000,,2013-11-12 21:02:00,
2013-11-12 13:12:00,74.0,29.0,-100.00,ENE,61,8.0,18.0,19,0.00,,,0.00,338.000000,,2013-11-12 21:12:00,
2013-11-12 13:14:00,74.0,32.0,-100.00,NE,54,10.0,16.0,21,0.00,,,0.00,233.000000,,2013-11-12 21:14:00,
2013-11-12 13:44:00,74.0,32.0,-100.00,NE,54,10.0,16.0,21,0.00,,,0.00,233.000000,,2013-11-12 21:44:00,
2013-11-12 13:54:00,74.0,32.0,-100.00,NE,54,10.0,16.0,21,0.00,,,0.00,233.000000,,2013-11-12 21:54:00,
2013-11-12 14:04:00,74.0,32.0,-100.00,NE,54,10.0,16.0,21,0.00,,,0.00,233.000000,,2013-11-12 22:04:00,
2013-11-12 14:43:00,72.0,31.0,-100.00,ENE,58,11.0,17.0,22,0.00,,,0.00,174.000000,,2013-11-12 22:43:00,
2013-11-12 14:54:00,72.0,31.0,-100.00,ENE,58,11.0,17.0,22,0.00,,,0.00,174.000000,,2013-11-12 22:54:00,
2013-11-12 15:03:00,72.0,31.0,-100.00,ENE,58,11.0,17.0,22,0.00,,,0.00,174.000000,,2013-11-12 23:03:00,
2013-11-12 15:11:00,72.0,31.0,-100.00,ENE,58,11.0,17.0,22,0.00,,,0.00,174.000000,,2013-11-12 23:11:00,
2013-11-12 15:42:00,73.0,31.0,-100.00,NE,54,10.0,16.0,21,0.00,,,0.00,119.000000,,2013-11-12 23:42:00,
2013-11-12 15:54:00,73.0,31.0,-100.00,NE,54,10.0,16.0,21,0.00,,,0.00,119.000000,,2013-11-12 23:54:00,
2013-11-12 16:02:00,73.0,31.0,-100.00,NE,54,10.0,16.0,21,0.00,,,0.00,119.000000,,2013-11-13 00:02:00,
2013-11-12 16:11:00,73.0,31.0,-100.00,NE,54,10.0,16.0,21,0.00,,,0.00,119.000000,,2013-11-13 00:11:00,
2013-11-12 16:42:00,70.0,28.0,-100.00,NE,52,10.0,16.0,21,0.00,,,0.00,51.000000,,2013-11-13 00:42:00,
2013-11-12 16:52:00,70.0,28.0,-100.00,NE,52,10.0,16.0,21,0.00,,,0.00,51.000000,,2013-11-13 00:52:00,
2013-11-12 17:01:00,70.0,28.0,-100.00,NE,52,10.0,16.0,21,0.00,,,0.00,51.000000,,2013-11-13 01:01:00,
2013-11-12 17:11:00,70.0,28.0,-100.00,NE,52,10.0,16.0,21,0.00,,,0.00,51.000000,,2013-11-13 01:11:00,
2013-11-12 17:42:00,68.0,27.0,-100.00,NE,52,8.0,14.0,21,0.00,,,0.00,15.000000,,2013-11-13 01:42:00,
2013-11-12 17:52:00,68.0,27.0,-100.00,NE,52,8.0,14.0,21,0.00,,,0.00,15.000000,,2013-11-13 01:52:00,
2013-11-12 18:01:00,68.0,27.0,-100.00,NE,52,8.0,14.0,21,0.00,,,0.00,15.000000,,2013-11-13 02:01:00,
2013-11-12 18:11:00,68.0,27.0,-100.00,NE,52,8.0,14.0,21,0.00,,,0.00,15.000000,,2013-11-13 02:11:00,
2013-11-12 18:42:00,68.0,25.0,-100.00,NE,43,7.0,14.0,20,0.00,,,0.00,0.000000,,2013-11-13 02:42:00,
2013-11-12 18:52:00,68.0,25.0,-100.00,NE,43,7.0,14.0,20,0.00,,,0.00,0.000000,,2013-11-13 02:52:00,
2013-11-12 19:02:00,68.0,25.0,-100.00,NE,43,7.0,14.0,20,0.00,,,0.00,0.000000,,2013-11-13 03:02:00,
2013-11-12 19:11:00,68.0,25.0,-100.00,NE,43,7.0,14.0,20,0.00,,,0.00,0.000000,,2013-11-13 03:11:00,
2013-11-12 19:14:00,68.0,25.0,-100.00,NE,50,10.0,14.0,20,0.00,,,0.00,0.000000,,2013-11-13 03:14:00,
2013-11-12 19:45:00,68.0,25.0,-100.00,NE,50,10.0,14.0,20,0.00,,,0.00,0.000000,,2013-11-13 03:45:00,
2013-11-12 19:54:00,68.0,25.0,-100.00,NE,50,10.0,14.0,20,0.00,,,0.00,0.000000,,2013-11-13 03:54:00,
2013-11-12 20:04:00,68.0,25.0,-100.00,NE,50,10.0,14.0,20,0.00,,,0.00,0.000000,,2013-11-13 04:04:00,
2013-11-12 20:43:00,69.0,24.0,-100.00,NE,51,11.0,16.0,18,0.00,,,0.00,0.000000,,2013-11-13 04:43:00,
2013-11-12 20:53:00,69.0,24.0,-100.00,NE,51,11.0,16.0,18,0.00,,,0.00,0.000000,,2013-11-13 04:53:00,
2013-11-12 21:03:00,69.0,24.0,-100.00,NE,51,11.0,16.0,18,0.00,,,0.00,0.000000,,2013-11-13 05:03:00,
2013-11-12 21:13:00,69.0,24.0,-100.00,NE,51,11.0,16.0,18,0.00,,,0.00,0.000000,,2013-11-13 05:13:00,
2013-11-12 21:43:00,69.0,22.0,-100.00,NE,51,12.0,17.0,17,0.00,,,0.00,0.000000,,2013-11-13 05:43:00,
2013-11-12 21:53:00,69.0,22.0,-100.00,NE,51,12.0,17.0,17,0.00,,,0.00,0.000000,,2013-11-13 05:53:00,
2013-11-12 22:03:00,69.0,22.0,-100.00,NE,51,12.0,17.0,17,0.00,,,0.00,0.000000,,2013-11-13 06:03:00,
2013-11-12 22:13:00,69.0,22.0,-100.00,NE,51,12.0,17.0,17,0.00,,,0.00,0.000000,,2013-11-13 06:13:00,
2013-11-12 22:42:00,68.0,22.0,-100.00,NE,49,11.0,18.0,17,0.00,,,0.00,0.000000,,2013-11-13 06:42:00,
2013-11-12 22:52:00,68.0,22.0,-100.00,NE,49,11.0,18.0,17,0.00,,,0.00,0.000000,,2013-11-13 06:52:00,
2013-11-12 23:01:00,68.0,22.0,-100.00,NE,49,11.0,18.0,17,0.00,,,0.00,0.000000,,2013-11-13 07:01:00,
2013-11-12 23:11:00,68.0,22.0,-100.00,NE,49,11.0,18.0,17,0.00,,,0.00,0.000000,,2013-11-13 07:11:00,
2013-11-12 23:42:00,68.0,23.0,-100.00,NE,47,10.0,17.0,18,0.00,,,0.00,0.000000,,2013-11-13 07:42:00,
2013-11-12 23:52:00,68.0,23.0,-100.00,NE,47,10.0,17.0,18,0.00,,,0.00,0.000000,,2013-11-13 07:52:00,